sensor_id;sensor_type;location;lat;lon;timestamp;pressure;altitude;pressure_sealevel;temperature;humidity
3294;BME280;1659;51.470;6.770;2023-03-25T00:01:28;100177.63;;;9.48;82.44
3294;BME280;1659;51.470;6.770;2023-03-25T00:03:57;100179.47;;;9.44;82.67
3294;BME280;1659;51.470;6.770;2023-03-25T00:06:25;100178.66;;;9.42;82.30
3294;BME280;1659;51.470;6.770;2023-03-25T00:08:53;100187.38;;;9.44;82.46
3294;BME280;1659;51.470;6.770;2023-03-25T00:11:21;100185.59;;;9.44;82.26
3294;BME280;1659;51.470;6.770;2023-03-25T00:13:48;100197.91;;;9.45;81.84
3294;BME280;1659;51.470;6.770;2023-03-25T00:16:15;100188.16;;;9.49;82.25
3294;BME280;1659;51.470;6.770;2023-03-25T00:18:43;100182.78;;;9.52;81.99
3294;BME280;1659;51.470;6.770;2023-03-25T00:21:12;100188.00;;;9.55;82.20
3294;BME280;1659;51.470;6.770;2023-03-25T00:23:39;100186.28;;;9.54;82.13
3294;BME280;1659;51.470;6.770;2023-03-25T00:26:07;100182.72;;;9.55;82.01
3294;BME280;1659;51.470;6.770;2023-03-25T00:28:36;100181.81;;;9.56;81.75
3294;BME280;1659;51.470;6.770;2023-03-25T00:31:04;100177.41;;;9.57;81.72
3294;BME280;1659;51.470;6.770;2023-03-25T00:33:31;100175.63;;;9.57;82.09
3294;BME280;1659;51.470;6.770;2023-03-25T00:36:00;100167.69;;;9.59;81.75
3294;BME280;1659;51.470;6.770;2023-03-25T00:38:30;100172.09;;;9.58;81.75
3294;BME280;1659;51.470;6.770;2023-03-25T00:41:12;100179.97;;;9.60;81.61
3294;BME280;1659;51.470;6.770;2023-03-25T00:43:42;100171.13;;;9.61;81.80
3294;BME280;1659;51.470;6.770;2023-03-25T00:46:09;100175.56;;;9.60;81.83
3294;BME280;1659;51.470;6.770;2023-03-25T00:48:35;100174.69;;;9.60;82.12
3294;BME280;1659;51.470;6.770;2023-03-25T00:51:02;100160.59;;;9.61;82.24
3294;BME280;1659;51.470;6.770;2023-03-25T00:53:33;100160.59;;;9.61;82.13
3294;BME280;1659;51.470;6.770;2023-03-25T00:55:59;100166.75;;;9.61;82.16
3294;BME280;1659;51.470;6.770;2023-03-25T00:58:28;100157.03;;;9.63;82.09
3294;BME280;1659;51.470;6.770;2023-03-25T01:00:55;100150.88;;;9.63;82.10
3294;BME280;1659;51.470;6.770;2023-03-25T01:03:22;100158.81;;;9.63;82.36
3294;BME280;1659;51.470;6.770;2023-03-25T01:05:49;100165.78;;;9.64;82.19
3294;BME280;1659;51.470;6.770;2023-03-25T01:08:19;100162.31;;;9.63;82.22
3294;BME280;1659;51.470;6.770;2023-03-25T01:10:50;100160.53;;;9.64;81.99
3294;BME280;1659;51.470;6.770;2023-03-25T01:13:16;100159.63;;;9.65;82.00
3294;BME280;1659;51.470;6.770;2023-03-25T01:15:44;100164.91;;;9.65;82.07
3294;BME280;1659;51.470;6.770;2023-03-25T01:18:13;100174.53;;;9.66;81.54
3294;BME280;1659;51.470;6.770;2023-03-25T01:20:39;100175.41;;;9.67;82.01
3294;BME280;1659;51.470;6.770;2023-03-25T01:23:06;100175.41;;;9.67;81.51
3294;BME280;1659;51.470;6.770;2023-03-25T01:25:33;100156.06;;;9.66;81.57
3294;BME280;1659;51.470;6.770;2023-03-25T01:28:00;100152.56;;;9.66;81.60
3294;BME280;1659;51.470;6.770;2023-03-25T01:30:26;100149.94;;;9.66;81.60
3294;BME280;1659;51.470;6.770;2023-03-25T01:32:54;100152.53;;;9.67;81.74
3294;BME280;1659;51.470;6.770;2023-03-25T01:35:21;100149.91;;;9.67;81.46
3294;BME280;1659;51.470;6.770;2023-03-25T01:37:48;100151.69;;;9.67;81.35
3294;BME280;1659;51.470;6.770;2023-03-25T01:40:18;100154.31;;;9.67;81.29
3294;BME280;1659;51.470;6.770;2023-03-25T01:42:45;100136.72;;;9.67;81.34
3294;BME280;1659;51.470;6.770;2023-03-25T01:45:15;100148.09;;;9.69;80.94
3294;BME280;1659;51.470;6.770;2023-03-25T01:47:45;100134.00;;;9.70;81.30
3294;BME280;1659;51.470;6.770;2023-03-25T01:50:15;100139.28;;;9.70;80.53
3294;BME280;1659;51.470;6.770;2023-03-25T01:52:44;100139.22;;;9.73;80.33
3294;BME280;1659;51.470;6.770;2023-03-25T01:55:13;100136.50;;;9.75;79.80
3294;BME280;1659;51.470;6.770;2023-03-25T01:57:40;100142.69;;;9.74;79.60
3294;BME280;1659;51.470;6.770;2023-03-25T02:00:11;100147.06;;;9.75;79.48
3294;BME280;1659;51.470;6.770;2023-03-25T02:02:38;100147.97;;;9.74;79.52
3294;BME280;1659;51.470;6.770;2023-03-25T02:05:08;100140.06;;;9.74;79.41
3294;BME280;1659;51.470;6.770;2023-03-25T02:07:40;100151.47;;;9.74;79.05
3294;BME280;1659;51.470;6.770;2023-03-25T02:10:11;100138.31;;;9.73;78.53
3294;BME280;1659;51.470;6.770;2023-03-25T02:12:38;100153.28;;;9.72;78.51
3294;BME280;1659;51.470;6.770;2023-03-25T02:15:07;100145.47;;;9.68;78.48
3294;BME280;1659;51.470;6.770;2023-03-25T02:17:42;100151.75;;;9.63;78.65
3294;BME280;1659;51.470;6.770;2023-03-25T02:20:42;100142.19;;;9.59;78.54
3294;BME280;1659;51.470;6.770;2023-03-25T02:23:49;100135.19;;;9.57;78.49
3294;BME280;1659;51.470;6.770;2023-03-25T02:26:57;100161.59;;;9.55;78.38
3294;BME280;1659;51.470;6.770;2023-03-25T02:29:54;100142.28;;;9.55;78.26
3294;BME280;1659;51.470;6.770;2023-03-25T02:32:36;100152.81;;;9.56;78.26
3294;BME280;1659;51.470;6.770;2023-03-25T02:35:18;100159.88;;;9.56;78.43
3294;BME280;1659;51.470;6.770;2023-03-25T02:38:16;100157.25;;;9.54;78.31
3294;BME280;1659;51.470;6.770;2023-03-25T02:40:49;100142.34;;;9.52;78.32
3294;BME280;1659;51.470;6.770;2023-03-25T02:43:24;100151.25;;;9.48;77.82
3294;BME280;1659;51.470;6.770;2023-03-25T02:45:54;100151.28;;;9.46;78.02
3294;BME280;1659;51.470;6.770;2023-03-25T02:48:28;100151.31;;;9.44;77.93
3294;BME280;1659;51.470;6.770;2023-03-25T02:50:59;100143.44;;;9.43;77.83
3294;BME280;1659;51.470;6.770;2023-03-25T02:53:30;100147.88;;;9.42;77.70
3294;BME280;1659;51.470;6.770;2023-03-25T02:56:01;100158.38;;;9.44;77.74
3294;BME280;1659;51.470;6.770;2023-03-25T02:58:31;100150.47;;;9.44;78.23
3294;BME280;1659;51.470;6.770;2023-03-25T03:00:58;100149.53;;;9.45;78.74
3294;BME280;1659;51.470;6.770;2023-03-25T03:03:25;100157.50;;;9.43;78.55
3294;BME280;1659;51.470;6.770;2023-03-25T03:05:55;100141.66;;;9.43;78.20
3294;BME280;1659;51.470;6.770;2023-03-25T03:08:33;100141.66;;;9.43;78.34
3294;BME280;1659;51.470;6.770;2023-03-25T03:11:10;100139.03;;;9.43;78.35
3294;BME280;1659;51.470;6.770;2023-03-25T03:13:50;100145.22;;;9.42;78.59
3294;BME280;1659;51.470;6.770;2023-03-25T03:16:30;100139.09;;;9.42;78.31
3294;BME280;1659;51.470;6.770;2023-03-25T03:19:05;100139.09;;;9.42;78.54
3294;BME280;1659;51.470;6.770;2023-03-25T03:21:39;100143.44;;;9.43;78.44
3294;BME280;1659;51.470;6.770;2023-03-25T03:24:13;100134.75;;;9.39;78.38
3294;BME280;1659;51.470;6.770;2023-03-25T03:26:46;100150.59;;;9.38;78.32
3294;BME280;1659;51.470;6.770;2023-03-25T03:29:17;100130.47;;;9.35;78.43
3294;BME280;1659;51.470;6.770;2023-03-25T03:31:50;100123.44;;;9.34;78.30
3294;BME280;1659;51.470;6.770;2023-03-25T03:34:20;100134.91;;;9.33;78.81
3294;BME280;1659;51.470;6.770;2023-03-25T03:36:51;100128.78;;;9.31;78.95
3294;BME280;1659;51.470;6.770;2023-03-25T03:39:22;100133.25;;;9.27;78.58
3294;BME280;1659;51.470;6.770;2023-03-25T03:41:53;100139.44;;;9.26;78.93
3294;BME280;1659;51.470;6.770;2023-03-25T03:44:24;100135.94;;;9.26;78.58
3294;BME280;1659;51.470;6.770;2023-03-25T03:46:57;100138.56;;;9.26;78.77
3294;BME280;1659;51.470;6.770;2023-03-25T03:49:28;100140.34;;;9.25;78.66
3294;BME280;1659;51.470;6.770;2023-03-25T03:52:02;100142.97;;;9.25;78.73
3294;BME280;1659;51.470;6.770;2023-03-25T03:54:37;100138.56;;;9.26;79.36
3294;BME280;1659;51.470;6.770;2023-03-25T03:57:08;100136.00;;;9.24;79.09
3294;BME280;1659;51.470;6.770;2023-03-25T03:59:41;100143.13;;;9.19;79.05
3294;BME280;1659;51.470;6.770;2023-03-25T04:02:16;100146.75;;;9.14;79.18
3294;BME280;1659;51.470;6.770;2023-03-25T04:04:47;100141.69;;;9.06;79.72
3294;BME280;1659;51.470;6.770;2023-03-25T04:07:16;100142.66;;;9.02;79.91
3294;BME280;1659;51.470;6.770;2023-03-25T04:09:52;100141.78;;;9.01;79.89
3294;BME280;1659;51.470;6.770;2023-03-25T04:12:24;100140.00;;;9.03;80.32
3294;BME280;1659;51.470;6.770;2023-03-25T04:14:52;100148.75;;;9.04;80.52
3294;BME280;1659;51.470;6.770;2023-03-25T04:17:19;100141.72;;;9.03;80.63
3294;BME280;1659;51.470;6.770;2023-03-25T04:19:45;100143.56;;;8.99;80.62
3294;BME280;1659;51.470;6.770;2023-03-25T04:22:14;100153.31;;;8.96;81.04
3294;BME280;1659;51.470;6.770;2023-03-25T04:24:42;100142.84;;;8.93;81.04
3294;BME280;1659;51.470;6.770;2023-03-25T04:27:10;100150.75;;;8.93;81.03
3294;BME280;1659;51.470;6.770;2023-03-25T04:29:38;100128.81;;;8.92;81.12
3294;BME280;1659;51.470;6.770;2023-03-25T04:32:05;100141.06;;;8.95;81.21
3294;BME280;1659;51.470;6.770;2023-03-25T04:34:32;100140.16;;;8.96;81.25
3294;BME280;1659;51.470;6.770;2023-03-25T04:36:59;100154.19;;;8.96;81.13
3294;BME280;1659;51.470;6.770;2023-03-25T04:39:26;100140.09;;;8.97;80.89
3294;BME280;1659;51.470;6.770;2023-03-25T04:41:54;100143.63;;;8.96;81.57
3294;BME280;1659;51.470;6.770;2023-03-25T04:44:23;100139.25;;;8.97;81.38
3294;BME280;1659;51.470;6.770;2023-03-25T04:46:51;100140.09;;;8.99;81.63
3294;BME280;1659;51.470;6.770;2023-03-25T04:49:19;100136.59;;;8.98;81.23
3294;BME280;1659;51.470;6.770;2023-03-25T04:51:46;100146.22;;;8.99;80.72
3294;BME280;1659;51.470;6.770;2023-03-25T04:54:14;100143.56;;;8.99;80.62
3294;BME280;1659;51.470;6.770;2023-03-25T04:56:40;100138.47;;;8.92;80.70
3294;BME280;1659;51.470;6.770;2023-03-25T04:59:07;100136.88;;;8.86;80.90
3294;BME280;1659;51.470;6.770;2023-03-25T05:01:36;100136.00;;;8.84;80.90
3294;BME280;1659;51.470;6.770;2023-03-25T05:04:07;100134.28;;;8.83;81.33
3294;BME280;1659;51.470;6.770;2023-03-25T05:06:38;100139.56;;;8.83;81.35
3294;BME280;1659;51.470;6.770;2023-03-25T05:09:07;100134.28;;;8.83;81.50
3294;BME280;1659;51.470;6.770;2023-03-25T05:11:35;100127.22;;;8.85;81.09
3294;BME280;1659;51.470;6.770;2023-03-25T05:14:04;100122.75;;;8.88;81.07
3294;BME280;1659;51.470;6.770;2023-03-25T05:16:31;100124.44;;;8.91;80.76
3294;BME280;1659;51.470;6.770;2023-03-25T05:18:59;100126.13;;;8.94;80.91
3294;BME280;1659;51.470;6.770;2023-03-25T05:21:27;100125.16;;;8.98;80.40
3294;BME280;1659;51.470;6.770;2023-03-25T05:23:54;100130.41;;;8.99;80.73
3294;BME280;1659;51.470;6.770;2023-03-25T05:26:22;100132.16;;;9.00;80.47
3294;BME280;1659;51.470;6.770;2023-03-25T05:28:49;100135.63;;;9.01;80.53
3294;BME280;1659;51.470;6.770;2023-03-25T05:31:16;100131.25;;;9.00;80.92
3294;BME280;1659;51.470;6.770;2023-03-25T05:33:42;100135.63;;;9.01;80.90
3294;BME280;1659;51.470;6.770;2023-03-25T05:36:11;100136.47;;;9.03;80.75
3294;BME280;1659;51.470;6.770;2023-03-25T05:38:38;100132.94;;;9.04;81.00
3294;BME280;1659;51.470;6.770;2023-03-25T05:41:06;100138.16;;;9.07;80.90
3294;BME280;1659;51.470;6.770;2023-03-25T05:43:35;100135.44;;;9.08;80.34
3294;BME280;1659;51.470;6.770;2023-03-25T05:46:01;100138.97;;;9.09;80.55
3294;BME280;1659;51.470;6.770;2023-03-25T05:48:29;100138.94;;;9.11;80.61
3294;BME280;1659;51.470;6.770;2023-03-25T05:50:56;100131.00;;;9.12;80.46
3294;BME280;1659;51.470;6.770;2023-03-25T05:53:25;100141.47;;;9.15;80.54
3294;BME280;1659;51.470;6.770;2023-03-25T05:55:55;100140.56;;;9.16;80.22
3294;BME280;1659;51.470;6.770;2023-03-25T05:58:21;100146.66;;;9.18;80.14
3294;BME280;1659;51.470;6.770;2023-03-25T06:00:49;100153.59;;;9.22;79.85
3294;BME280;1659;51.470;6.770;2023-03-25T06:03:16;100143.03;;;9.22;79.83
3294;BME280;1659;51.470;6.770;2023-03-25T06:05:45;100150.06;;;9.23;79.50
3294;BME280;1659;51.470;6.770;2023-03-25T06:08:11;100147.44;;;9.23;79.74
3294;BME280;1659;51.470;6.770;2023-03-25T06:10:39;100149.22;;;9.23;79.44
3294;BME280;1659;51.470;6.770;2023-03-25T06:13:06;100147.44;;;9.23;79.79
3294;BME280;1659;51.470;6.770;2023-03-25T06:15:32;100146.53;;;9.24;79.48
3294;BME280;1659;51.470;6.770;2023-03-25T06:18:03;100128.91;;;9.26;79.61
3294;BME280;1659;51.470;6.770;2023-03-25T06:20:31;100148.22;;;9.27;79.47
3294;BME280;1659;51.470;6.770;2023-03-25T06:22:57;100155.22;;;9.30;79.69
3294;BME280;1659;51.470;6.770;2023-03-25T06:25:24;100154.25;;;9.32;79.72
3294;BME280;1659;51.470;6.770;2023-03-25T06:27:52;100154.19;;;9.35;79.82
3294;BME280;1659;51.470;6.770;2023-03-25T06:30:20;100165.59;;;9.36;79.86
3294;BME280;1659;51.470;6.770;2023-03-25T06:32:47;100155.03;;;9.36;79.91
3294;BME280;1659;51.470;6.770;2023-03-25T06:35:17;100151.56;;;9.35;79.91
3294;BME280;1659;51.470;6.770;2023-03-25T06:37:44;100165.59;;;9.36;79.93
3294;BME280;1659;51.470;6.770;2023-03-25T06:40:12;100170.00;;;9.35;79.69
3294;BME280;1659;51.470;6.770;2023-03-25T06:42:39;100165.59;;;9.36;79.78
3294;BME280;1659;51.470;6.770;2023-03-25T06:45:08;100176.94;;;9.39;80.21
3294;BME280;1659;51.470;6.770;2023-03-25T06:47:36;100178.56;;;9.45;79.83
3294;BME280;1659;51.470;6.770;2023-03-25T06:50:03;100176.66;;;9.52;80.04
3294;BME280;1659;51.470;6.770;2023-03-25T06:52:30;100177.38;;;9.58;79.93
3294;BME280;1659;51.470;6.770;2023-03-25T06:54:56;100186.03;;;9.63;80.05
3294;BME280;1659;51.470;6.770;2023-03-25T06:57:23;100170.28;;;9.60;79.90
3294;BME280;1659;51.470;6.770;2023-03-25T06:59:49;100170.31;;;9.59;80.12
3294;BME280;1659;51.470;6.770;2023-03-25T07:02:17;100167.78;;;9.56;80.12
3294;BME280;1659;51.470;6.770;2023-03-25T07:04:44;100173.06;;;9.56;80.36
3294;BME280;1659;51.470;6.770;2023-03-25T07:07:10;100180.06;;;9.55;80.32
3294;BME280;1659;51.470;6.770;2023-03-25T07:09:37;100176.63;;;9.53;80.39
3294;BME280;1659;51.470;6.770;2023-03-25T07:12:04;100175.63;;;9.57;80.74
3294;BME280;1659;51.470;6.770;2023-03-25T07:14:30;100172.09;;;9.58;80.65
3294;BME280;1659;51.470;6.770;2023-03-25T07:16:57;100174.66;;;9.61;80.50
3294;BME280;1659;51.470;6.770;2023-03-25T07:19:25;100179.94;;;9.61;80.69
3294;BME280;1659;51.470;6.770;2023-03-25T07:21:51;100182.44;;;9.66;80.83
3294;BME280;1659;51.470;6.770;2023-03-25T07:24:18;100183.34;;;9.67;80.90
3294;BME280;1659;51.470;6.770;2023-03-25T07:26:45;100178.03;;;9.68;80.91
3294;BME280;1659;51.470;6.770;2023-03-25T07:29:11;100185.00;;;9.69;81.14
3294;BME280;1659;51.470;6.770;2023-03-25T07:31:38;100178.91;;;9.67;80.73
3294;BME280;1659;51.470;6.770;2023-03-25T07:34:05;100186.03;;;9.63;80.63
3294;BME280;1659;51.470;6.770;2023-03-25T07:36:34;100187.06;;;9.58;80.86
3294;BME280;1659;51.470;6.770;2023-03-25T07:39:00;100186.25;;;9.56;80.91
3294;BME280;1659;51.470;6.770;2023-03-25T07:41:27;100193.28;;;9.54;81.08
3294;BME280;1659;51.470;6.770;2023-03-25T07:43:53;100202.97;;;9.53;80.98
3294;BME280;1659;51.470;6.770;2023-03-25T07:46:20;100189.78;;;9.53;80.99
3294;BME280;1659;51.470;6.770;2023-03-25T07:48:46;100181.88;;;9.53;81.37
3294;BME280;1659;51.470;6.770;2023-03-25T07:51:13;100184.53;;;9.53;80.97
3294;BME280;1659;51.470;6.770;2023-03-25T07:53:41;100185.38;;;9.54;80.80
3294;BME280;1659;51.470;6.770;2023-03-25T07:56:09;100194.97;;;9.58;80.81
3294;BME280;1659;51.470;6.770;2023-03-25T07:58:36;100192.09;;;9.67;80.79
3294;BME280;1659;51.470;6.770;2023-03-25T08:01:03;100188.41;;;9.74;80.04
3294;BME280;1659;51.470;6.770;2023-03-25T08:03:30;100185.59;;;9.82;79.57
3294;BME280;1659;51.470;6.770;2023-03-25T08:05:59;100195.88;;;9.93;79.20
3294;BME280;1659;51.470;6.770;2023-03-25T08:08:27;100190.28;;;10.05;78.71
3294;BME280;1659;51.470;6.770;2023-03-25T08:10:56;100197.84;;;10.19;78.40
3294;BME280;1659;51.470;6.770;2023-03-25T08:13:32;100192.28;;;10.31;77.39
3294;BME280;1659;51.470;6.770;2023-03-25T08:16:10;100199.09;;;10.40;77.00
3294;BME280;1659;51.470;6.770;2023-03-25T08:18:37;100202.47;;;10.45;76.50
3294;BME280;1659;51.470;6.770;2023-03-25T08:21:04;100201.44;;;10.51;75.96
3294;BME280;1659;51.470;6.770;2023-03-25T08:23:31;100205.59;;;10.60;75.93
3294;BME280;1659;51.470;6.770;2023-03-25T08:26:03;100200.34;;;10.58;74.80
3294;BME280;1659;51.470;6.770;2023-03-25T08:28:30;100214.56;;;10.54;74.45
3294;BME280;1659;51.470;6.770;2023-03-25T08:30:57;100208.47;;;10.52;74.59
3294;BME280;1659;51.470;6.770;2023-03-25T08:33:26;100209.22;;;10.55;74.62
3294;BME280;1659;51.470;6.770;2023-03-25T08:35:59;100198.44;;;10.63;74.35
3294;BME280;1659;51.470;6.770;2023-03-25T08:38:26;100201.56;;;10.77;74.25
3294;BME280;1659;51.470;6.770;2023-03-25T08:40:56;100197.56;;;10.94;73.76
3294;BME280;1659;51.470;6.770;2023-03-25T08:43:24;100201.09;;;10.93;73.33
3294;BME280;1659;51.470;6.770;2023-03-25T08:45:51;100214.75;;;10.77;73.36
3294;BME280;1659;51.470;6.770;2023-03-25T08:48:18;100213.41;;;10.64;73.50
3294;BME280;1659;51.470;6.770;2023-03-25T08:50:44;100209.16;;;10.57;74.04
3294;BME280;1659;51.470;6.770;2023-03-25T08:53:11;100213.66;;;10.53;73.99
3294;BME280;1659;51.470;6.770;2023-03-25T08:55:37;100204.97;;;10.50;74.18
3294;BME280;1659;51.470;6.770;2023-03-25T08:58:04;100218.16;;;10.50;74.42
3294;BME280;1659;51.470;6.770;2023-03-25T09:00:34;100219.94;;;10.49;74.00
3294;BME280;1659;51.470;6.770;2023-03-25T09:03:02;100214.75;;;10.46;74.28
3294;BME280;1659;51.470;6.770;2023-03-25T09:05:29;100219.16;;;10.46;74.39
3294;BME280;1659;51.470;6.770;2023-03-25T09:07:56;100221.75;;;10.49;74.32
3294;BME280;1659;51.470;6.770;2023-03-25T09:10:22;100215.56;;;10.48;74.37
3294;BME280;1659;51.470;6.770;2023-03-25T09:12:49;100211.16;;;10.49;74.34
3294;BME280;1659;51.470;6.770;2023-03-25T09:15:17;100216.44;;;10.49;74.46
3294;BME280;1659;51.470;6.770;2023-03-25T09:17:44;100226.28;;;10.44;74.27
3294;BME280;1659;51.470;6.770;2023-03-25T09:20:11;100230.91;;;10.34;74.47
3294;BME280;1659;51.470;6.770;2023-03-25T09:22:38;100227.72;;;10.21;74.94
3294;BME280;1659;51.470;6.770;2023-03-25T09:25:06;100218.53;;;10.01;75.85
3294;BME280;1659;51.470;6.770;2023-03-25T09:27:33;100217.28;;;9.82;76.54
3294;BME280;1659;51.470;6.770;2023-03-25T09:29:59;100224.50;;;9.74;77.28
3294;BME280;1659;51.470;6.770;2023-03-25T09:32:26;100218.25;;;9.76;77.64
3294;BME280;1659;51.470;6.770;2023-03-25T09:34:54;100211.88;;;9.85;77.98
3294;BME280;1659;51.470;6.770;2023-03-25T09:37:20;100218.75;;;9.92;77.82
3294;BME280;1659;51.470;6.770;2023-03-25T09:39:47;100223.97;;;9.95;77.62
3294;BME280;1659;51.470;6.770;2023-03-25T09:42:29;100225.63;;;9.99;77.89
3294;BME280;1659;51.470;6.770;2023-03-25T09:45:05;100207.81;;;10.08;77.75
3294;BME280;1659;51.470;6.770;2023-03-25T09:47:32;100196.00;;;10.23;78.20
3294;BME280;1659;51.470;6.770;2023-03-25T09:50:04;100205.19;;;10.42;77.25
3294;BME280;1659;51.470;6.770;2023-03-25T09:52:36;100209.34;;;10.51;76.80
3294;BME280;1659;51.470;6.770;2023-03-25T09:55:07;100197.00;;;10.51;76.13
3294;BME280;1659;51.470;6.770;2023-03-25T09:57:42;100212.06;;;10.48;76.02
3294;BME280;1659;51.470;6.770;2023-03-25T10:00:16;100229.81;;;10.43;76.25
3294;BME280;1659;51.470;6.770;2023-03-25T10:02:47;100226.53;;;10.34;76.13
3294;BME280;1659;51.470;6.770;2023-03-25T10:05:28;100239.03;;;10.26;76.46
3294;BME280;1659;51.470;6.770;2023-03-25T10:08:07;100237.31;;;10.24;76.83
3294;BME280;1659;51.470;6.770;2023-03-25T10:10:43;100236.66;;;10.15;77.44
3294;BME280;1659;51.470;6.770;2023-03-25T10:13:17;100246.59;;;10.06;77.57
3294;BME280;1659;51.470;6.770;2023-03-25T10:15:50;100251.22;;;9.96;78.07
3294;BME280;1659;51.470;6.770;2023-03-25T10:18:32;100239.19;;;9.84;78.61
3294;BME280;1659;51.470;6.770;2023-03-25T10:21:07;100236.69;;;9.78;79.31
3294;BME280;1659;51.470;6.770;2023-03-25T10:23:40;100244.63;;;9.76;79.83
3294;BME280;1659;51.470;6.770;2023-03-25T10:26:11;100239.38;;;9.76;79.98
3294;BME280;1659;51.470;6.770;2023-03-25T10:28:45;100231.28;;;9.84;80.75
3294;BME280;1659;51.470;6.770;2023-03-25T10:31:16;100233.69;;;9.93;80.78
3294;BME280;1659;51.470;6.770;2023-03-25T10:33:48;100238.84;;;9.99;80.72
3294;BME280;1659;51.470;6.770;2023-03-25T10:36:24;100229.97;;;10.02;80.62
3294;BME280;1659;51.470;6.770;2023-03-25T10:38:53;100241.31;;;10.06;80.55
3294;BME280;1659;51.470;6.770;2023-03-25T10:41:24;100239.16;;;10.20;80.62
3294;BME280;1659;51.470;6.770;2023-03-25T10:43:52;100240.56;;;10.36;80.09
3294;BME280;1659;51.470;6.770;2023-03-25T10:46:25;100240.22;;;10.49;79.12
3294;BME280;1659;51.470;6.770;2023-03-25T10:48:53;100241.91;;;10.51;78.20
3294;BME280;1659;51.470;6.770;2023-03-25T10:51:25;100248.44;;;10.38;78.40
3294;BME280;1659;51.470;6.770;2023-03-25T10:53:53;100251.38;;;10.26;79.14
3294;BME280;1659;51.470;6.770;2023-03-25T10:56:22;100256.94;;;10.13;79.25
3294;BME280;1659;51.470;6.770;2023-03-25T10:58:51;100261.63;;;10.02;79.75
3294;BME280;1659;51.470;6.770;2023-03-25T11:01:21;100262.66;;;9.96;80.06
3294;BME280;1659;51.470;6.770;2023-03-25T11:03:52;100252.16;;;9.93;80.21
3294;BME280;1659;51.470;6.770;2023-03-25T11:06:25;100253.78;;;9.99;80.13
3294;BME280;1659;51.470;6.770;2023-03-25T11:09:09;100256.78;;;10.19;80.65
3294;BME280;1659;51.470;6.770;2023-03-25T11:11:37;100256.13;;;10.80;79.34
3294;BME280;1659;51.470;6.770;2023-03-25T11:14:04;100253.47;;;11.41;78.31
3294;BME280;1659;51.470;6.770;2023-03-25T11:16:31;100245.50;;;12.24;77.91
3294;BME280;1659;51.470;6.770;2023-03-25T11:18:59;100249.69;;;12.82;76.27
3294;BME280;1659;51.470;6.770;2023-03-25T11:21:31;100235.91;;;13.43;75.06
3294;BME280;1659;51.470;6.770;2023-03-25T11:23:59;100237.72;;;13.87;72.43
3294;BME280;1659;51.470;6.770;2023-03-25T11:26:27;100231.16;;;14.18;72.39
3294;BME280;1659;51.470;6.770;2023-03-25T11:29:00;100232.31;;;14.73;71.42
3294;BME280;1659;51.470;6.770;2023-03-25T11:31:33;100238.09;;;15.02;70.55
3294;BME280;1659;51.470;6.770;2023-03-25T11:34:04;100230.16;;;15.01;69.67
3294;BME280;1659;51.470;6.770;2023-03-25T11:36:34;100230.13;;;15.21;69.78
3294;BME280;1659;51.470;6.770;2023-03-25T11:39:12;100220.97;;;15.46;69.04
3294;BME280;1659;51.470;6.770;2023-03-25T11:41:41;100217.72;;;15.77;68.17
3294;BME280;1659;51.470;6.770;2023-03-25T11:44:19;100218.78;;;15.92;66.44
3294;BME280;1659;51.470;6.770;2023-03-25T11:46:49;100204.13;;;16.01;66.92
3294;BME280;1659;51.470;6.770;2023-03-25T11:49:19;100222.09;;;16.15;66.01
3294;BME280;1659;51.470;6.770;2023-03-25T11:51:48;100219.63;;;15.93;62.39
3294;BME280;1659;51.470;6.770;2023-03-25T11:54:16;100207.25;;;15.55;63.94
3294;BME280;1659;51.470;6.770;2023-03-25T11:56:47;100227.31;;;15.24;62.75
3294;BME280;1659;51.470;6.770;2023-03-25T11:59:21;100228.53;;;14.98;64.00
3294;BME280;1659;51.470;6.770;2023-03-25T12:01:50;100210.75;;;14.99;63.73
3294;BME280;1659;51.470;6.770;2023-03-25T12:04:18;100235.72;;;14.96;63.78
3294;BME280;1659;51.470;6.770;2023-03-25T12:06:56;100231.47;;;14.92;62.61
3294;BME280;1659;51.470;6.770;2023-03-25T12:09:24;100219.47;;;15.02;63.19
3294;BME280;1659;51.470;6.770;2023-03-25T12:12:02;100229.13;;;15.43;60.78
3294;BME280;1659;51.470;6.770;2023-03-25T12:14:38;100219.66;;;15.74;59.52
3294;BME280;1659;51.470;6.770;2023-03-25T12:17:15;100215.09;;;16.12;59.19
3294;BME280;1659;51.470;6.770;2023-03-25T12:19:48;100213.47;;;16.45;58.48
3294;BME280;1659;51.470;6.770;2023-03-25T12:22:27;100213.88;;;16.70;57.11
3294;BME280;1659;51.470;6.770;2023-03-25T12:25:07;100218.75;;;16.79;55.49
3294;BME280;1659;51.470;6.770;2023-03-25T12:27:47;100225.88;;;16.61;55.55
3294;BME280;1659;51.470;6.770;2023-03-25T12:30:25;100235.88;;;16.58;56.37
3294;BME280;1659;51.470;6.770;2023-03-25T12:33:03;100234.06;;;16.76;55.61
3294;BME280;1659;51.470;6.770;2023-03-25T12:35:36;100221.63;;;16.41;55.68
3294;BME280;1659;51.470;6.770;2023-03-25T12:38:25;100221.75;;;16.38;55.58
3294;BME280;1659;51.470;6.770;2023-03-25T12:41:10;100223.66;;;16.36;55.02
3294;BME280;1659;51.470;6.770;2023-03-25T12:43:49;100196.03;;;16.55;54.93
3294;BME280;1659;51.470;6.770;2023-03-25T12:46:28;100214.56;;;16.91;54.07
3294;BME280;1659;51.470;6.770;2023-03-25T12:49:08;100201.56;;;16.68;54.41
3294;BME280;1659;51.470;6.770;2023-03-25T12:51:47;100207.00;;;16.66;54.34
3294;BME280;1659;51.470;6.770;2023-03-25T12:54:29;100220.06;;;16.20;54.75
3294;BME280;1659;51.470;6.770;2023-03-25T12:57:10;100214.63;;;15.67;55.18
3294;BME280;1659;51.470;6.770;2023-03-25T13:00:06;100213.78;;;14.91;56.66
3294;BME280;1659;51.470;6.770;2023-03-25T13:03:11;100243.13;;;14.28;58.38
3294;BME280;1659;51.470;6.770;2023-03-25T13:05:47;100240.66;;;14.01;59.75
3294;BME280;1659;51.470;6.770;2023-03-25T13:08:18;100236.09;;;14.05;60.27
3294;BME280;1659;51.470;6.770;2023-03-25T13:10:49;100227.47;;;14.63;59.94
3294;BME280;1659;51.470;6.770;2023-03-25T13:13:23;100239.63;;;15.27;59.49
3294;BME280;1659;51.470;6.770;2023-03-25T13:15:55;100239.78;;;15.43;59.11
3294;BME280;1659;51.470;6.770;2023-03-25T13:18:27;100244.53;;;15.36;59.09
3294;BME280;1659;51.470;6.770;2023-03-25T13:20:59;100242.00;;;15.14;59.40
3294;BME280;1659;51.470;6.770;2023-03-25T13:23:28;100231.59;;;14.70;59.41
3294;BME280;1659;51.470;6.770;2023-03-25T13:26:02;100248.69;;;14.22;59.23
3294;BME280;1659;51.470;6.770;2023-03-25T13:28:36;100257.59;;;14.21;59.53
3294;BME280;1659;51.470;6.770;2023-03-25T13:31:05;100235.53;;;14.39;58.82
3294;BME280;1659;51.470;6.770;2023-03-25T13:33:38;100282.13;;;14.48;58.27
3294;BME280;1659;51.470;6.770;2023-03-25T13:36:13;100252.41;;;14.18;58.09